sensor_id;sensor_type;location;lat;lon;timestamp;P1;durP1;ratioP1;P2;durP2;ratioP2
11761;SDS011;5938;47.098;15.474;2023-05-29T00:02:29;7.57;;;6.70;;
11761;SDS011;5938;47.098;15.474;2023-05-29T00:06:33;8.60;;;7.30;;
11761;SDS011;5938;47.098;15.474;2023-05-29T00:10:38;8.23;;;7.00;;
11761;SDS011;5938;47.098;15.474;2023-05-29T00:14:41;10.60;;;7.60;;
11761;SDS011;5938;47.098;15.474;2023-05-29T00:18:44;8.77;;;6.40;;
11761;SDS011;5938;47.098;15.474;2023-05-29T00:22:48;10.50;;;7.60;;
11761;SDS011;5938;47.098;15.474;2023-05-29T00:26:53;10.03;;;7.50;;
11761;SDS011;5938;47.098;15.474;2023-05-29T00:30:56;8.00;;;7.27;;
11761;SDS011;5938;47.098;15.474;2023-05-29T00:34:59;8.93;;;7.00;;
11761;SDS011;5938;47.098;15.474;2023-05-29T00:39:02;7.77;;;7.00;;
11761;SDS011;5938;47.098;15.474;2023-05-29T00:43:07;6.57;;;5.83;;
11761;SDS011;5938;47.098;15.474;2023-05-29T00:47:10;11.40;;;7.03;;
11761;SDS011;5938;47.098;15.474;2023-05-29T00:51:14;9.70;;;7.80;;
11761;SDS011;5938;47.098;15.474;2023-05-29T00:55:19;11.20;;;7.20;;
11761;SDS011;5938;47.098;15.474;2023-05-29T00:59:24;7.63;;;6.87;;
11761;SDS011;5938;47.098;15.474;2023-05-29T01:03:28;8.47;;;6.00;;
11761;SDS011;5938;47.098;15.474;2023-05-29T01:07:33;11.47;;;7.47;;
11761;SDS011;5938;47.098;15.474;2023-05-29T01:11:40;8.40;;;7.27;;
11761;SDS011;5938;47.098;15.474;2023-05-29T01:15:54;8.73;;;6.97;;
11761;SDS011;5938;47.098;15.474;2023-05-29T01:20:16;11.50;;;7.50;;
11761;SDS011;5938;47.098;15.474;2023-05-29T01:24:32;10.57;;;6.87;;
11761;SDS011;5938;47.098;15.474;2023-05-29T01:28:47;11.40;;;7.27;;
11761;SDS011;5938;47.098;15.474;2023-05-29T01:32:51;10.63;;;7.37;;
11761;SDS011;5938;47.098;15.474;2023-05-29T01:36:55;10.33;;;7.40;;
11761;SDS011;5938;47.098;15.474;2023-05-29T01:40:58;8.93;;;7.20;;
11761;SDS011;5938;47.098;15.474;2023-05-29T01:45:04;10.40;;;7.17;;
11761;SDS011;5938;47.098;15.474;2023-05-29T01:49:08;14.03;;;7.13;;
11761;SDS011;5938;47.098;15.474;2023-05-29T01:53:13;12.13;;;8.13;;
11761;SDS011;5938;47.098;15.474;2023-05-29T01:57:16;12.60;;;7.47;;
11761;SDS011;5938;47.098;15.474;2023-05-29T02:01:23;10.03;;;7.20;;
11761;SDS011;5938;47.098;15.474;2023-05-29T02:05:27;7.77;;;6.97;;
11761;SDS011;5938;47.098;15.474;2023-05-29T02:09:31;8.70;;;7.10;;
11761;SDS011;5938;47.098;15.474;2023-05-29T02:13:34;10.10;;;7.43;;
11761;SDS011;5938;47.098;15.474;2023-05-29T02:17:39;11.93;;;6.90;;
11761;SDS011;5938;47.098;15.474;2023-05-29T02:21:43;12.03;;;7.30;;
11761;SDS011;5938;47.098;15.474;2023-05-29T02:25:46;9.50;;;7.67;;
11761;SDS011;5938;47.098;15.474;2023-05-29T02:29:49;9.03;;;7.90;;
11761;SDS011;5938;47.098;15.474;2023-05-29T02:33:54;14.83;;;8.13;;
11761;SDS011;5938;47.098;15.474;2023-05-29T02:37:58;8.43;;;7.53;;
11761;SDS011;5938;47.098;15.474;2023-05-29T02:42:01;14.93;;;7.97;;
11761;SDS011;5938;47.098;15.474;2023-05-29T02:46:05;11.20;;;7.87;;
11761;SDS011;5938;47.098;15.474;2023-05-29T02:50:10;12.83;;;7.80;;
11761;SDS011;5938;47.098;15.474;2023-05-29T02:54:16;8.90;;;7.07;;
11761;SDS011;5938;47.098;15.474;2023-05-29T02:58:19;10.60;;;7.23;;
11761;SDS011;5938;47.098;15.474;2023-05-29T03:02:23;12.03;;;8.43;;
11761;SDS011;5938;47.098;15.474;2023-05-29T03:06:28;11.00;;;8.80;;
11761;SDS011;5938;47.098;15.474;2023-05-29T03:10:31;9.03;;;8.10;;
11761;SDS011;5938;47.098;15.474;2023-05-29T03:14:35;10.67;;;6.80;;
11761;SDS011;5938;47.098;15.474;2023-05-29T03:18:38;10.80;;;7.70;;
11761;SDS011;5938;47.098;15.474;2023-05-29T03:22:43;7.90;;;7.13;;
11761;SDS011;5938;47.098;15.474;2023-05-29T03:26:47;11.53;;;8.17;;
11761;SDS011;5938;47.098;15.474;2023-05-29T03:30:50;9.57;;;7.77;;
11761;SDS011;5938;47.098;15.474;2023-05-29T03:34:54;9.03;;;7.60;;
11761;SDS011;5938;47.098;15.474;2023-05-29T03:39:00;11.37;;;7.43;;
11761;SDS011;5938;47.098;15.474;2023-05-29T03:43:03;8.17;;;6.90;;
11761;SDS011;5938;47.098;15.474;2023-05-29T03:47:07;9.10;;;8.20;;
11761;SDS011;5938;47.098;15.474;2023-05-29T03:51:11;8.00;;;7.20;;
11761;SDS011;5938;47.098;15.474;2023-05-29T04:00:38;7.67;;;6.87;;
11761;SDS011;5938;47.098;15.474;2023-05-29T04:04:41;9.30;;;8.20;;
11761;SDS011;5938;47.098;15.474;2023-05-29T04:08:45;11.60;;;8.77;;
11761;SDS011;5938;47.098;15.474;2023-05-29T04:12:48;11.10;;;7.93;;
11761;SDS011;5938;47.098;15.474;2023-05-29T04:16:53;8.53;;;7.57;;
11761;SDS011;5938;47.098;15.474;2023-05-29T04:20:56;10.93;;;7.50;;
11761;SDS011;5938;47.098;15.474;2023-05-29T04:24:59;9.90;;;8.30;;
11761;SDS011;5938;47.098;15.474;2023-05-29T04:29:05;11.80;;;7.77;;
11761;SDS011;5938;47.098;15.474;2023-05-29T04:33:10;10.57;;;8.07;;
11761;SDS011;5938;47.098;15.474;2023-05-29T04:37:14;12.70;;;7.37;;
11761;SDS011;5938;47.098;15.474;2023-05-29T04:41:17;10.03;;;7.87;;
11761;SDS011;5938;47.098;15.474;2023-05-29T04:45:20;8.73;;;7.83;;
11761;SDS011;5938;47.098;15.474;2023-05-29T04:49:25;7.90;;;7.10;;
11761;SDS011;5938;47.098;15.474;2023-05-29T04:53:28;11.43;;;6.87;;
11761;SDS011;5938;47.098;15.474;2023-05-29T04:57:32;8.20;;;7.37;;
11761;SDS011;5938;47.098;15.474;2023-05-29T05:01:35;8.23;;;7.40;;
11761;SDS011;5938;47.098;15.474;2023-05-29T05:05:40;8.43;;;7.53;;
11761;SDS011;5938;47.098;15.474;2023-05-29T05:09:45;9.17;;;7.50;;
11761;SDS011;5938;47.098;15.474;2023-05-29T05:13:48;11.47;;;7.03;;
11761;SDS011;5938;47.098;15.474;2023-05-29T05:17:51;9.37;;;7.43;;
11761;SDS011;5938;47.098;15.474;2023-05-29T05:21:56;9.10;;;6.27;;
11761;SDS011;5938;47.098;15.474;2023-05-29T05:25:59;9.53;;;7.27;;
11761;SDS011;5938;47.098;15.474;2023-05-29T05:30:03;14.13;;;7.50;;
11761;SDS011;5938;47.098;15.474;2023-05-29T05:34:07;10.60;;;7.93;;
11761;SDS011;5938;47.098;15.474;2023-05-29T05:38:11;14.83;;;7.43;;
11761;SDS011;5938;47.098;15.474;2023-05-29T05:42:15;9.47;;;6.50;;
11761;SDS011;5938;47.098;15.474;2023-05-29T05:46:18;11.57;;;8.27;;
11761;SDS011;5938;47.098;15.474;2023-05-29T05:50:23;9.30;;;6.63;;
11761;SDS011;5938;47.098;15.474;2023-05-29T05:54:28;8.27;;;7.43;;
11761;SDS011;5938;47.098;15.474;2023-05-29T05:58:32;8.73;;;7.07;;
11761;SDS011;5938;47.098;15.474;2023-05-29T06:02:35;10.77;;;7.70;;
11761;SDS011;5938;47.098;15.474;2023-05-29T06:06:39;8.20;;;7.00;;
11761;SDS011;5938;47.098;15.474;2023-05-29T06:10:43;6.90;;;6.30;;
11761;SDS011;5938;47.098;15.474;2023-05-29T06:14:48;7.57;;;6.87;;
11761;SDS011;5938;47.098;15.474;2023-05-29T06:18:51;8.23;;;7.43;;
11761;SDS011;5938;47.098;15.474;2023-05-29T06:22:54;8.10;;;6.33;;
11761;SDS011;5938;47.098;15.474;2023-05-29T06:26:59;11.17;;;7.47;;
11761;SDS011;5938;47.098;15.474;2023-05-29T06:31:03;8.00;;;7.20;;
11761;SDS011;5938;47.098;15.474;2023-05-29T06:35:06;9.17;;;7.10;;
11761;SDS011;5938;47.098;15.474;2023-05-29T06:39:10;7.07;;;6.40;;
11761;SDS011;5938;47.098;15.474;2023-05-29T06:43:17;8.00;;;7.20;;
11761;SDS011;5938;47.098;15.474;2023-05-29T06:47:20;11.97;;;7.50;;
11761;SDS011;5938;47.098;15.474;2023-05-29T06:51:23;13.30;;;8.43;;
11761;SDS011;5938;47.098;15.474;2023-05-29T06:55:27;9.03;;;6.37;;
11761;SDS011;5938;47.098;15.474;2023-05-29T06:59:31;10.53;;;7.50;;
11761;SDS011;5938;47.098;15.474;2023-05-29T07:03:35;8.40;;;7.03;;
11761;SDS011;5938;47.098;15.474;2023-05-29T07:07:39;9.80;;;7.47;;
11761;SDS011;5938;47.098;15.474;2023-05-29T07:11:42;10.13;;;7.20;;
11761;SDS011;5938;47.098;15.474;2023-05-29T07:15:47;8.23;;;7.07;;
11761;SDS011;5938;47.098;15.474;2023-05-29T07:19:51;6.90;;;6.20;;
11761;SDS011;5938;47.098;15.474;2023-05-29T07:23:55;13.80;;;6.90;;
11761;SDS011;5938;47.098;15.474;2023-05-29T07:27:58;10.27;;;6.70;;
11761;SDS011;5938;47.098;15.474;2023-05-29T07:32:23;7.97;;;6.27;;
11761;SDS011;5938;47.098;15.474;2023-05-29T07:36:28;9.00;;;6.57;;
11761;SDS011;5938;47.098;15.474;2023-05-29T07:40:32;9.00;;;6.30;;
11761;SDS011;5938;47.098;15.474;2023-05-29T07:44:36;7.40;;;6.00;;
11761;SDS011;5938;47.098;15.474;2023-05-29T07:48:40;7.80;;;5.63;;
11761;SDS011;5938;47.098;15.474;2023-05-29T07:52:44;11.53;;;6.93;;
11761;SDS011;5938;47.098;15.474;2023-05-29T07:56:47;7.13;;;5.83;;
11761;SDS011;5938;47.098;15.474;2023-05-29T08:00:51;9.93;;;6.60;;
11761;SDS011;5938;47.098;15.474;2023-05-29T08:04:56;6.83;;;6.10;;
11761;SDS011;5938;47.098;15.474;2023-05-29T08:08:59;8.17;;;6.13;;
11761;SDS011;5938;47.098;15.474;2023-05-29T08:13:03;10.43;;;6.77;;
11761;SDS011;5938;47.098;15.474;2023-05-29T08:17:06;6.70;;;6.00;;
11761;SDS011;5938;47.098;15.474;2023-05-29T08:21:11;7.33;;;5.93;;
11761;SDS011;5938;47.098;15.474;2023-05-29T08:25:14;8.37;;;7.43;;
11761;SDS011;5938;47.098;15.474;2023-05-29T08:29:17;11.43;;;6.77;;
11761;SDS011;5938;47.098;15.474;2023-05-29T08:33:21;9.70;;;6.77;;
11761;SDS011;5938;47.098;15.474;2023-05-29T08:37:26;8.00;;;6.10;;
11761;SDS011;5938;47.098;15.474;2023-05-29T08:41:31;5.63;;;5.10;;
11761;SDS011;5938;47.098;15.474;2023-05-29T08:45:44;7.00;;;6.30;;
11761;SDS011;5938;47.098;15.474;2023-05-29T08:49:50;7.37;;;6.00;;
11761;SDS011;5938;47.098;15.474;2023-05-29T08:53:57;6.67;;;6.07;;
11761;SDS011;5938;47.098;15.474;2023-05-29T08:58:01;7.50;;;6.70;;
11761;SDS011;5938;47.098;15.474;2023-05-29T09:02:05;8.00;;;5.27;;
11761;SDS011;5938;47.098;15.474;2023-05-29T09:06:08;8.53;;;6.47;;
11761;SDS011;5938;47.098;15.474;2023-05-29T09:10:13;7.60;;;6.40;;
11761;SDS011;5938;47.098;15.474;2023-05-29T09:14:31;6.27;;;5.63;;
11761;SDS011;5938;47.098;15.474;2023-05-29T09:18:37;8.47;;;6.30;;
11761;SDS011;5938;47.098;15.474;2023-05-29T09:22:41;7.40;;;5.50;;
11761;SDS011;5938;47.098;15.474;2023-05-29T09:26:49;5.73;;;5.23;;
11761;SDS011;5938;47.098;15.474;2023-05-29T09:30:53;6.50;;;5.90;;
11761;SDS011;5938;47.098;15.474;2023-05-29T09:34:59;6.97;;;6.27;;
11761;SDS011;5938;47.098;15.474;2023-05-29T09:39:03;7.10;;;6.20;;
11761;SDS011;5938;47.098;15.474;2023-05-29T09:43:19;6.83;;;6.23;;
11761;SDS011;5938;47.098;15.474;2023-05-29T09:47:25;7.33;;;5.90;;
11761;SDS011;5938;47.098;15.474;2023-05-29T09:51:35;8.00;;;7.20;;
11761;SDS011;5938;47.098;15.474;2023-05-29T09:55:39;7.93;;;7.23;;
11761;SDS011;5938;47.098;15.474;2023-05-29T09:59:44;6.73;;;5.90;;
11761;SDS011;5938;47.098;15.474;2023-05-29T10:03:50;7.43;;;6.40;;
11761;SDS011;5938;47.098;15.474;2023-05-29T10:07:53;6.63;;;6.00;;
11761;SDS011;5938;47.098;15.474;2023-05-29T10:11:57;6.63;;;6.03;;
11761;SDS011;5938;47.098;15.474;2023-05-29T10:16:06;6.67;;;6.03;;
11761;SDS011;5938;47.098;15.474;2023-05-29T10:20:14;7.47;;;6.77;;
11761;SDS011;5938;47.098;15.474;2023-05-29T10:24:20;7.47;;;6.10;;
11761;SDS011;5938;47.098;15.474;2023-05-29T10:28:24;8.30;;;5.90;;
11761;SDS011;5938;47.098;15.474;2023-05-29T10:32:32;7.60;;;6.27;;
11761;SDS011;5938;47.098;15.474;2023-05-29T10:36:49;8.60;;;6.80;;
11761;SDS011;5938;47.098;15.474;2023-05-29T10:45:48;8.80;;;6.60;;
11761;SDS011;5938;47.098;15.474;2023-05-29T10:49:55;7.07;;;6.37;;
11761;SDS011;5938;47.098;15.474;2023-05-29T10:54:02;7.13;;;6.50;;
11761;SDS011;5938;47.098;15.474;2023-05-29T10:58:13;8.37;;;6.97;;
11761;SDS011;5938;47.098;15.474;2023-05-29T11:02:21;7.50;;;6.57;;
11761;SDS011;5938;47.098;15.474;2023-05-29T11:06:28;6.17;;;5.67;;
11761;SDS011;5938;47.098;15.474;2023-05-29T11:10:41;8.30;;;6.80;;
11761;SDS011;5938;47.098;15.474;2023-05-29T11:14:46;7.83;;;6.33;;
11761;SDS011;5938;47.098;15.474;2023-05-29T11:18:49;9.00;;;6.43;;
11761;SDS011;5938;47.098;15.474;2023-05-29T11:23:02;10.90;;;6.70;;
11761;SDS011;5938;47.098;15.474;2023-05-29T11:27:09;6.87;;;6.20;;
11761;SDS011;5938;47.098;15.474;2023-05-29T11:31:13;6.70;;;5.97;;
11761;SDS011;5938;47.098;15.474;2023-05-29T11:35:19;7.13;;;6.20;;
11761;SDS011;5938;47.098;15.474;2023-05-29T11:39:26;7.40;;;6.70;;
11761;SDS011;5938;47.098;15.474;2023-05-29T11:43:29;6.87;;;6.27;;
11761;SDS011;5938;47.098;15.474;2023-05-29T11:47:44;7.37;;;6.20;;
11761;SDS011;5938;47.098;15.474;2023-05-29T11:52:04;6.40;;;5.80;;
11761;SDS011;5938;47.098;15.474;2023-05-29T11:56:18;8.33;;;6.47;;
11761;SDS011;5938;47.098;15.474;2023-05-29T12:00:22;7.00;;;6.40;;
11761;SDS011;5938;47.098;15.474;2023-05-29T12:04:25;6.90;;;6.00;;
11761;SDS011;5938;47.098;15.474;2023-05-29T12:08:29;7.30;;;6.60;;
11761;SDS011;5938;47.098;15.474;2023-05-29T12:12:34;6.80;;;6.20;;
11761;SDS011;5938;47.098;15.474;2023-05-29T12:16:38;7.00;;;6.33;;
11761;SDS011;5938;47.098;15.474;2023-05-29T12:20:41;6.60;;;6.00;;
11761;SDS011;5938;47.098;15.474;2023-05-29T12:24:45;6.53;;;5.93;;
11761;SDS011;5938;47.098;15.474;2023-05-29T12:28:51;8.20;;;6.77;;
11761;SDS011;5938;47.098;15.474;2023-05-29T12:32:54;6.77;;;6.07;;
11761;SDS011;5938;47.098;15.474;2023-05-29T12:37:04;7.77;;;7.07;;
11761;SDS011;5938;47.098;15.474;2023-05-29T12:41:26;6.60;;;6.03;;
11761;SDS011;5938;47.098;15.474;2023-05-29T12:45:32;7.53;;;6.83;;
11761;SDS011;5938;47.098;15.474;2023-05-29T12:49:36;7.57;;;6.87;;
11761;SDS011;5938;47.098;15.474;2023-05-29T12:53:39;6.47;;;5.87;;
11761;SDS011;5938;47.098;15.474;2023-05-29T12:57:43;6.90;;;6.30;;
11761;SDS011;5938;47.098;15.474;2023-05-29T13:01:49;7.43;;;6.73;;
11761;SDS011;5938;47.098;15.474;2023-05-29T13:05:54;6.43;;;5.83;;
11761;SDS011;5938;47.098;15.474;2023-05-29T13:09:58;7.00;;;6.40;;
11761;SDS011;5938;47.098;15.474;2023-05-29T13:14:02;9.40;;;7.47;;
11761;SDS011;5938;47.098;15.474;2023-05-29T13:18:07;7.17;;;6.47;;
11761;SDS011;5938;47.098;15.474;2023-05-29T13:22:10;7.13;;;5.50;;
11761;SDS011;5938;47.098;15.474;2023-05-29T13:26:13;8.00;;;6.47;;
11761;SDS011;5938;47.098;15.474;2023-05-29T13:30:17;6.70;;;6.10;;
11761;SDS011;5938;47.098;15.474;2023-05-29T13:34:22;6.53;;;5.90;;
11761;SDS011;5938;47.098;15.474;2023-05-29T13:38:29;6.80;;;6.10;;
11761;SDS011;5938;47.098;15.474;2023-05-29T13:42:33;6.60;;;5.97;;
11761;SDS011;5938;47.098;15.474;2023-05-29T13:46:38;6.33;;;5.73;;
11761;SDS011;5938;47.098;15.474;2023-05-29T13:50:43;6.47;;;5.80;;
11761;SDS011;5938;47.098;15.474;2023-05-29T13:54:46;6.60;;;6.00;;
11761;SDS011;5938;47.098;15.474;2023-05-29T13:58:49;7.13;;;6.40;;
11761;SDS011;5938;47.098;15.474;2023-05-29T14:02:52;6.37;;;5.77;;
11761;SDS011;5938;47.098;15.474;2023-05-29T14:06:57;6.87;;;6.17;;
11761;SDS011;5938;47.098;15.474;2023-05-29T14:11:00;6.20;;;5.60;;
11761;SDS011;5938;47.098;15.474;2023-05-29T14:15:04;6.23;;;5.70;;
11761;SDS011;5938;47.098;15.474;2023-05-29T14:19:08;6.13;;;5.60;;
11761;SDS011;5938;47.098;15.474;2023-05-29T14:23:13;5.43;;;5.03;;
11761;SDS011;5938;47.098;15.474;2023-05-29T14:27:17;6.70;;;6.10;;
11761;SDS011;5938;47.098;15.474;2023-05-29T14:31:23;5.93;;;5.53;;
11761;SDS011;5938;47.098;15.474;2023-05-29T14:35:27;6.77;;;6.27;;
11761;SDS011;5938;47.098;15.474;2023-05-29T14:39:31;8.03;;;7.23;;
11761;SDS011;5938;47.098;15.474;2023-05-29T14:43:34;8.10;;;6.13;;
11761;SDS011;5938;47.098;15.474;2023-05-29T14:47:38;5.87;;;5.30;;
11761;SDS011;5938;47.098;15.474;2023-05-29T14:51:42;6.43;;;5.80;;
11761;SDS011;5938;47.098;15.474;2023-05-29T14:55:48;6.43;;;5.93;;
11761;SDS011;5938;47.098;15.474;2023-05-29T14:59:52;6.73;;;5.43;;
11761;SDS011;5938;47.098;15.474;2023-05-29T15:03:55;6.87;;;6.17;;
11761;SDS011;5938;47.098;15.474;2023-05-29T15:07:58;8.80;;;6.40;;
11761;SDS011;5938;47.098;15.474;2023-05-29T15:12:03;6.83;;;6.13;;
11761;SDS011;5938;47.098;15.474;2023-05-29T15:16:09;6.27;;;5.70;;
11761;SDS011;5938;47.098;15.474;2023-05-29T15:20:13;7.07;;;6.33;;
11761;SDS011;5938;47.098;15.474;2023-05-29T15:24:19;6.17;;;5.70;;
11761;SDS011;5938;47.098;15.474;2023-05-29T15:28:23;6.77;;;6.20;;
11761;SDS011;5938;47.098;15.474;2023-05-29T15:32:27;5.50;;;5.00;;
11761;SDS011;5938;47.098;15.474;2023-05-29T15:36:30;9.73;;;5.93;;
11761;SDS011;5938;47.098;15.474;2023-05-29T15:40:33;6.37;;;5.77;;
11761;SDS011;5938;47.098;15.474;2023-05-29T15:44:38;7.07;;;5.80;;
11761;SDS011;5938;47.098;15.474;2023-05-29T15:48:41;6.50;;;6.00;;
11761;SDS011;5938;47.098;15.474;2023-05-29T15:52:45;5.67;;;5.00;;
11761;SDS011;5938;47.098;15.474;2023-05-29T15:56:56;7.67;;;6.40;;
11761;SDS011;5938;47.098;15.474;2023-05-29T16:01:02;6.20;;;5.57;;
11761;SDS011;5938;47.098;15.474;2023-05-29T16:05:06;5.93;;;5.43;;
11761;SDS011;5938;47.098;15.474;2023-05-29T16:09:10;6.07;;;5.50;;
11761;SDS011;5938;47.098;15.474;2023-05-29T16:13:13;8.17;;;5.17;;
11761;SDS011;5938;47.098;15.474;2023-05-29T16:17:19;6.23;;;5.60;;
11761;SDS011;5938;47.098;15.474;2023-05-29T16:21:22;6.00;;;5.50;;
11761;SDS011;5938;47.098;15.474;2023-05-29T16:25:26;5.40;;;4.90;;
11761;SDS011;5938;47.098;15.474;2023-05-29T16:29:30;8.70;;;5.83;;
11761;SDS011;5938;47.098;15.474;2023-05-29T16:33:35;5.87;;;5.27;;
11761;SDS011;5938;47.098;15.474;2023-05-29T16:37:39;5.70;;;4.90;;
11761;SDS011;5938;47.098;15.474;2023-05-29T16:41:42;8.37;;;5.53;;
11761;SDS011;5938;47.098;15.474;2023-05-29T16:45:47;8.10;;;5.20;;
11761;SDS011;5938;47.098;15.474;2023-05-29T16:49:53;6.47;;;5.50;;
11761;SDS011;5938;47.098;15.474;2023-05-29T16:53:56;6.63;;;6.00;;
11761;SDS011;5938;47.098;15.474;2023-05-29T16:58:00;5.53;;;5.00;;
11761;SDS011;5938;47.098;15.474;2023-05-29T17:02:03;5.33;;;4.83;;
11761;SDS011;5938;47.098;15.474;2023-05-29T17:06:13;6.00;;;5.40;;
11761;SDS011;5938;47.098;15.474;2023-05-29T17:10:16;5.90;;;5.30;;
11761;SDS011;5938;47.098;15.474;2023-05-29T17:14:21;6.50;;;5.40;;
11761;SDS011;5938;47.098;15.474;2023-05-29T17:18:24;6.23;;;4.93;;
11761;SDS011;5938;47.098;15.474;2023-05-29T17:22:31;6.70;;;5.43;;
11761;SDS011;5938;47.098;15.474;2023-05-29T17:26:34;6.87;;;5.40;;
11761;SDS011;5938;47.098;15.474;2023-05-29T17:30:37;5.37;;;4.77;;
11761;SDS011;5938;47.098;15.474;2023-05-29T17:34:42;6.20;;;5.53;;
11761;SDS011;5938;47.098;15.474;2023-05-29T17:38:47;7.13;;;5.33;;
11761;SDS011;5938;47.098;15.474;2023-05-29T17:42:51;6.73;;;5.80;;
11761;SDS011;5938;47.098;15.474;2023-05-29T17:46:57;6.87;;;4.70;;
11761;SDS011;5938;47.098;15.474;2023-05-29T17:51:01;6.90;;;5.10;;
11761;SDS011;5938;47.098;15.474;2023-05-29T17:55:09;5.70;;;4.90;;
11761;SDS011;5938;47.098;15.474;2023-05-29T17:59:12;6.93;;;5.77;;
11761;SDS011;5938;47.098;15.474;2023-05-29T18:03:19;6.23;;;5.17;;
11761;SDS011;5938;47.098;15.474;2023-05-29T18:07:24;7.20;;;5.53;;
11761;SDS011;5938;47.098;15.474;2023-05-29T18:11:30;5.53;;;5.00;;
11761;SDS011;5938;47.098;15.474;2023-05-29T18:15:33;7.03;;;5.87;;
11761;SDS011;5938;47.098;15.474;2023-05-29T18:19:36;6.37;;;5.77;;
11761;SDS011;5938;47.098;15.474;2023-05-29T18:23:40;6.00;;;5.40;;
11761;SDS011;5938;47.098;15.474;2023-05-29T18:27:49;7.47;;;6.20;;
11761;SDS011;5938;47.098;15.474;2023-05-29T18:31:53;9.93;;;5.47;;
11761;SDS011;5938;47.098;15.474;2023-05-29T18:36:00;6.30;;;5.70;;
11761;SDS011;5938;47.098;15.474;2023-05-29T18:40:05;5.93;;;4.80;;
11761;SDS011;5938;47.098;15.474;2023-05-29T18:44:12;7.70;;;6.07;;
11761;SDS011;5938;47.098;15.474;2023-05-29T18:52:45;5.10;;;4.53;;
11761;SDS011;5938;47.098;15.474;2023-05-29T18:56:49;8.50;;;5.50;;
11761;SDS011;5938;47.098;15.474;2023-05-29T19:00:55;7.17;;;6.10;;
11761;SDS011;5938;47.098;15.474;2023-05-29T19:05:16;8.53;;;6.17;;
11761;SDS011;5938;47.098;15.474;2023-05-29T19:09:22;8.60;;;5.93;;
11761;SDS011;5938;47.098;15.474;2023-05-29T19:13:27;6.10;;;5.30;;
11761;SDS011;5938;47.098;15.474;2023-05-29T19:17:40;6.97;;;6.20;;
11761;SDS011;5938;47.098;15.474;2023-05-29T19:21:44;8.27;;;5.40;;
11761;SDS011;5938;47.098;15.474;2023-05-29T19:25:56;6.03;;;4.63;;
11761;SDS011;5938;47.098;15.474;2023-05-29T19:30:00;5.73;;;5.20;;
11761;SDS011;5938;47.098;15.474;2023-05-29T19:34:07;6.70;;;5.53;;
11761;SDS011;5938;47.098;15.474;2023-05-29T19:38:11;6.63;;;5.70;;
11761;SDS011;5938;47.098;15.474;2023-05-29T19:42:22;8.30;;;5.83;;
11761;SDS011;5938;47.098;15.474;2023-05-29T19:46:28;6.83;;;5.80;;
11761;SDS011;5938;47.098;15.474;2023-05-29T19:50:35;5.80;;;5.10;;
11761;SDS011;5938;47.098;15.474;2023-05-29T19:54:39;9.00;;;6.53;;
11761;SDS011;5938;47.098;15.474;2023-05-29T19:58:44;8.53;;;5.17;;
11761;SDS011;5938;47.098;15.474;2023-05-29T20:02:48;6.23;;;5.63;;
11761;SDS011;5938;47.098;15.474;2023-05-29T20:06:53;6.90;;;5.67;;
11761;SDS011;5938;47.098;15.474;2023-05-29T20:10:57;18.60;;;6.57;;
11761;SDS011;5938;47.098;15.474;2023-05-29T20:15:01;7.00;;;5.70;;
11761;SDS011;5938;47.098;15.474;2023-05-29T20:19:05;9.30;;;5.60;;
11761;SDS011;5938;47.098;15.474;2023-05-29T20:23:10;6.80;;;6.10;;
11761;SDS011;5938;47.098;15.474;2023-05-29T20:27:13;19.53;;;6.30;;
11761;SDS011;5938;47.098;15.474;2023-05-29T20:31:17;7.73;;;5.40;;
11761;SDS011;5938;47.098;15.474;2023-05-29T20:35:22;6.17;;;5.53;;
11761;SDS011;5938;47.098;15.474;2023-05-29T20:39:29;8.10;;;6.10;;
11761;SDS011;5938;47.098;15.474;2023-05-29T20:43:37;7.47;;;6.70;;
11761;SDS011;5938;47.098;15.474;2023-05-29T20:47:43;7.17;;;4.90;;
11761;SDS011;5938;47.098;15.474;2023-05-29T20:51:50;9.10;;;6.07;;
11761;SDS011;5938;47.098;15.474;2023-05-29T20:56:08;9.90;;;6.43;;
11761;SDS011;5938;47.098;15.474;2023-05-29T21:00:15;8.20;;;6.23;;
11761;SDS011;5938;47.098;15.474;2023-05-29T21:04:19;7.10;;;5.87;;
11761;SDS011;5938;47.098;15.474;2023-05-29T21:08:23;7.63;;;5.97;;
11761;SDS011;5938;47.098;15.474;2023-05-29T21:12:31;11.07;;;5.93;;
11761;SDS011;5938;47.098;15.474;2023-05-29T21:16:34;10.07;;;6.30;;
11761;SDS011;5938;47.098;15.474;2023-05-29T21:20:38;7.90;;;6.07;;
11761;SDS011;5938;47.098;15.474;2023-05-29T21:24:41;7.40;;;6.27;;
11761;SDS011;5938;47.098;15.474;2023-05-29T21:28:46;8.40;;;6.27;;
11761;SDS011;5938;47.098;15.474;2023-05-29T21:32:51;9.57;;;6.57;;
11761;SDS011;5938;47.098;15.474;2023-05-29T21:36:56;5.60;;;5.00;;
11761;SDS011;5938;47.098;15.474;2023-05-29T21:41:00;8.20;;;5.93;;
11761;SDS011;5938;47.098;15.474;2023-05-29T21:45:13;8.73;;;5.93;;
11761;SDS011;5938;47.098;15.474;2023-05-29T21:49:17;7.73;;;6.00;;
11761;SDS011;5938;47.098;15.474;2023-05-29T21:53:21;8.17;;;5.97;;
11761;SDS011;5938;47.098;15.474;2023-05-29T21:57:24;9.57;;;6.60;;
11761;SDS011;5938;47.098;15.474;2023-05-29T22:01:28;8.50;;;6.60;;
11761;SDS011;5938;47.098;15.474;2023-05-29T22:05:32;10.80;;;7.77;;
11761;SDS011;5938;47.098;15.474;2023-05-29T22:09:35;10.03;;;7.20;;
11761;SDS011;5938;47.098;15.474;2023-05-29T22:13:39;9.83;;;6.73;;
11761;SDS011;5938;47.098;15.474;2023-05-29T22:17:43;9.33;;;5.77;;
11761;SDS011;5938;47.098;15.474;2023-05-29T22:21:49;7.10;;;5.60;;
11761;SDS011;5938;47.098;15.474;2023-05-29T22:25:52;9.57;;;6.00;;
11761;SDS011;5938;47.098;15.474;2023-05-29T22:29:57;7.97;;;6.30;;
11761;SDS011;5938;47.098;15.474;2023-05-29T22:34:02;8.70;;;6.30;;
11761;SDS011;5938;47.098;15.474;2023-05-29T22:38:05;7.90;;;5.90;;
11761;SDS011;5938;47.098;15.474;2023-05-29T22:42:08;9.00;;;6.10;;
11761;SDS011;5938;47.098;15.474;2023-05-29T22:46:12;9.00;;;6.73;;
11761;SDS011;5938;47.098;15.474;2023-05-29T22:50:17;10.77;;;7.43;;
11761;SDS011;5938;47.098;15.474;2023-05-29T22:54:21;8.30;;;6.70;;
11761;SDS011;5938;47.098;15.474;2023-05-29T22:58:25;10.80;;;6.53;;
11761;SDS011;5938;47.098;15.474;2023-05-29T23:02:28;8.50;;;6.40;;
11761;SDS011;5938;47.098;15.474;2023-05-29T23:06:33;10.10;;;6.57;;
11761;SDS011;5938;47.098;15.474;2023-05-29T23:10:37;8.57;;;6.47;;
11761;SDS011;5938;47.098;15.474;2023-05-29T23:14:42;8.37;;;6.37;;
11761;SDS011;5938;47.098;15.474;2023-05-29T23:18:45;13.47;;;5.97;;
11761;SDS011;5938;47.098;15.474;2023-05-29T23:22:50;7.80;;;6.13;;
11761;SDS011;5938;47.098;15.474;2023-05-29T23:26:54;9.50;;;6.47;;
11761;SDS011;5938;47.098;15.474;2023-05-29T23:30:57;10.20;;;5.73;;
11761;SDS011;5938;47.098;15.474;2023-05-29T23:35:01;8.40;;;6.43;;
11761;SDS011;5938;47.098;15.474;2023-05-29T23:39:06;10.00;;;5.93;;
11761;SDS011;5938;47.098;15.474;2023-05-29T23:43:10;7.90;;;5.80;;
11761;SDS011;5938;47.098;15.474;2023-05-29T23:47:13;8.43;;;6.97;;
11761;SDS011;5938;47.098;15.474;2023-05-29T23:51:17;7.77;;;5.27;;
11761;SDS011;5938;47.098;15.474;2023-05-29T23:55:23;8.37;;;6.20;;
11761;SDS011;5938;47.098;15.474;2023-05-29T23:59:27;7.73;;;6.50;;
